createdAt,value
2019-04-06T00:00:49.084Z,97743.08
2019-04-06T00:03:15.952Z,97744.16
2019-04-06T00:05:42.818Z,97740.75
2019-04-06T00:08:09.674Z,97730.73
2019-04-06T00:10:36.477Z,97737.04
2019-04-06T00:13:03.376Z,97727.39
2019-04-06T00:15:30.263Z,97730.00
2019-04-06T00:17:56.964Z,97725.73
2019-04-06T00:20:23.755Z,97722.54
2019-04-06T00:22:50.737Z,97717.85
2019-04-06T00:25:19.163Z,97717.61
2019-04-06T00:27:45.919Z,97714.78
2019-04-06T00:30:12.788Z,97715.11
2019-04-06T00:32:59.186Z,97713.77
2019-04-06T00:35:27.730Z,97719.80
2019-04-06T00:37:54.629Z,97716.36
2019-04-06T00:40:23.283Z,97710.81
2019-04-06T00:42:50.132Z,97720.38
2019-04-06T00:45:16.896Z,97709.84
2019-04-06T00:47:43.648Z,97706.49
2019-04-06T00:50:10.438Z,97713.09
2019-04-06T00:52:37.246Z,97704.42
2019-04-06T00:55:04.291Z,97705.98
2019-04-06T00:57:31.009Z,97708.86
2019-04-06T00:59:57.744Z,97706.01
2019-04-06T01:02:24.642Z,97706.84
2019-04-06T01:04:51.862Z,97714.23
2019-04-06T01:07:18.596Z,97708.98
2019-04-06T01:09:46.095Z,97707.17
2019-04-06T01:12:12.893Z,97712.48
2019-04-06T01:14:41.674Z,97707.78
2019-04-06T01:17:08.536Z,97717.80
2019-04-06T01:19:35.318Z,97720.46
2019-04-06T01:22:02.702Z,97719.69
2019-04-06T01:24:29.612Z,97727.13
2019-04-06T01:26:56.580Z,97719.55
2019-04-06T01:29:23.329Z,97719.84
2019-04-06T01:31:50.180Z,97730.59
2019-04-06T01:34:17.367Z,97723.23
2019-04-06T01:36:44.118Z,97723.00
2019-04-06T01:39:11.210Z,97735.07
2019-04-06T01:41:37.955Z,97721.19
2019-04-06T01:44:06.121Z,97724.13
2019-04-06T01:46:35.661Z,97736.78
2019-04-06T01:49:02.730Z,97714.53
2019-04-06T01:51:29.794Z,97718.27
2019-04-06T01:53:56.554Z,97722.20
2019-04-06T01:56:23.390Z,97726.13
2019-04-06T01:58:50.131Z,97721.44
2019-04-06T02:01:24.205Z,97714.37
2019-04-06T02:03:51.198Z,97711.23
2019-04-06T02:06:18.004Z,97713.36
2019-04-06T02:08:44.783Z,97717.88
2019-04-06T02:11:11.505Z,97727.09
2019-04-06T02:13:38.847Z,97717.38
2019-04-06T02:16:05.530Z,97723.42
2019-04-06T02:18:32.304Z,97723.94
2019-04-06T02:20:59.065Z,97714.99
2019-04-06T02:23:26.151Z,97718.98
2019-04-06T02:25:52.902Z,97716.36
2019-04-06T02:28:19.919Z,97722.41
2019-04-06T02:31:00.335Z,97728.45
2019-04-06T02:33:40.466Z,97716.13
2019-04-06T02:36:21.892Z,97717.44
2019-04-06T02:38:56.558Z,97710.36
2019-04-06T02:41:41.506Z,97713.51
2019-04-06T02:44:08.428Z,97719.89
2019-04-06T02:46:35.351Z,97719.33
2019-04-06T02:49:02.221Z,97712.52
2019-04-06T02:51:30.534Z,97709.07
2019-04-06T02:53:57.328Z,97714.60
2019-04-06T02:56:24.209Z,97717.77
2019-04-06T02:58:51.243Z,97716.70
2019-04-06T03:01:18.087Z,97722.74
2019-04-06T03:03:47.724Z,97724.89
2019-04-06T03:06:14.523Z,97717.27
2019-04-06T03:08:41.486Z,97715.43
2019-04-06T03:11:08.206Z,97709.39
2019-04-06T03:13:34.973Z,97712.77
2019-04-06T03:16:04.084Z,97711.46
2019-04-06T03:18:30.893Z,97711.21
2019-04-06T03:20:57.635Z,97709.39
2019-04-06T03:23:25.685Z,97705.73
2019-04-06T03:25:52.578Z,97703.11
2019-04-06T03:28:19.393Z,97708.63
2019-04-06T03:30:46.628Z,97699.45
2019-04-06T03:33:13.576Z,97698.66
2019-04-06T03:35:46.942Z,97702.35
2019-04-06T03:38:09.235Z,97714.16
2019-04-06T03:40:36.475Z,97705.50
2019-04-06T03:43:05.571Z,97702.88
2019-04-06T03:45:32.269Z,97702.88
2019-04-06T03:47:59.581Z,97709.95
2019-04-06T03:50:26.322Z,97702.08
2019-04-06T03:52:53.736Z,97704.42
2019-04-06T03:55:20.551Z,97703.15
2019-04-06T03:57:47.480Z,97696.04
2019-04-06T04:00:16.789Z,97698.94
2019-04-06T04:02:43.805Z,97701.05
2019-04-06T04:05:12.287Z,97700.25
2019-04-06T04:07:39.529Z,97698.94
2019-04-06T04:10:06.377Z,97691.07
2019-04-06T04:12:33.434Z,97694.22
2019-04-06T04:15:00.794Z,97700.28
2019-04-06T04:17:27.967Z,97702.39
2019-04-06T04:19:55.485Z,97697.94
2019-04-06T04:22:22.498Z,97704.49
2019-04-06T04:24:49.811Z,97700.80
2019-04-06T04:27:27.648Z,97701.35
2019-04-06T04:29:45.355Z,97701.35
2019-04-06T04:32:12.134Z,97696.63
2019-04-06T04:34:39.115Z,97702.14
2019-04-06T04:37:05.922Z,97707.12
2019-04-06T04:39:32.773Z,97708.16
2019-04-06T04:41:59.517Z,97709.71
2019-04-06T04:44:26.261Z,97709.71
2019-04-06T04:46:53.009Z,97711.02
2019-04-06T04:49:20.150Z,97712.05
2019-04-06T04:51:47.689Z,97718.62
2019-04-06T04:54:14.663Z,97719.92
2019-04-06T04:56:41.423Z,97720.20
2019-04-06T04:59:08.279Z,97718.61
2019-04-06T05:01:35.425Z,97717.82
2019-04-06T05:04:05.142Z,97725.17
2019-04-06T05:06:32.131Z,97725.97
2019-04-06T05:08:58.889Z,97728.83
2019-04-06T05:11:26.049Z,97736.70
2019-04-06T05:14:30.781Z,97733.80
2019-04-06T05:16:57.614Z,97741.43
2019-04-06T05:19:26.309Z,97731.73
2019-04-06T05:21:53.657Z,97732.77
2019-04-06T05:24:20.578Z,97730.42
2019-04-06T05:26:47.557Z,97736.19
2019-04-06T05:29:14.481Z,97737.50
2019-04-06T05:31:41.703Z,97739.33
2019-04-06T05:34:08.464Z,97737.77
2019-04-06T05:36:35.353Z,97741.95
2019-04-06T05:39:04.099Z,97741.43
2019-04-06T05:41:31.499Z,97738.05
2019-04-06T05:43:58.391Z,97738.05
2019-04-06T05:46:25.517Z,97750.88
2019-04-06T05:48:54.401Z,97749.03
2019-04-06T05:51:21.177Z,97750.30
2019-04-06T05:53:47.901Z,97755.27
2019-04-06T05:56:14.643Z,97757.90
2019-04-06T05:58:41.470Z,97763.66
2019-04-06T06:01:10.961Z,97775.23
2019-04-06T06:03:40.474Z,97770.75
2019-04-06T06:06:07.109Z,97767.87
2019-04-06T06:08:34.233Z,97762.63
2019-04-06T06:11:01.029Z,97767.08
2019-04-06T06:13:29.506Z,97764.46
2019-04-06T06:16:00.945Z,97765.02
2019-04-06T06:18:27.816Z,97767.66
2019-04-06T06:20:54.713Z,97767.66
2019-04-06T06:23:23.879Z,97770.29
2019-04-06T06:25:50.645Z,97662.05
2019-04-06T06:28:17.636Z,97770.75
2019-04-06T06:30:44.395Z,97765.50
2019-04-06T06:33:11.132Z,97768.72
2019-04-06T06:35:38.021Z,97763.74
2019-04-06T06:38:04.896Z,97769.52
2019-04-06T06:40:31.702Z,97770.56
2019-04-06T06:42:58.506Z,97780.23
2019-04-06T06:45:25.263Z,97773.67
2019-04-06T06:48:00.387Z,97766.60
2019-04-06T06:50:27.265Z,97772.84
2019-04-06T06:52:54.148Z,97773.41
2019-04-06T06:55:20.979Z,97769.74
2019-04-06T06:57:47.948Z,97778.65
2019-04-06T07:00:14.733Z,97769.70
2019-04-06T07:02:41.919Z,97775.71
2019-04-06T07:05:09.250Z,97774.40
2019-04-06T07:07:39.156Z,97776.73
2019-04-06T07:10:07.138Z,97784.09
2019-04-06T07:12:33.829Z,97780.67
2019-04-06T07:15:00.638Z,97779.88
2019-04-06T07:17:27.394Z,97784.09
2019-04-06T07:19:54.262Z,97779.36
2019-04-06T07:22:24.513Z,97775.38
2019-04-06T07:24:54.258Z,97777.76
2019-04-06T07:27:21.010Z,97771.09
2019-04-06T07:29:47.933Z,97779.73
2019-04-06T07:32:15.098Z,97784.46
2019-04-06T07:34:44.389Z,97767.09
2019-04-06T07:37:11.485Z,97770.13
2019-04-06T07:39:40.032Z,97771.37
2019-04-06T07:42:10.132Z,97768.42
2019-04-06T07:44:36.886Z,97767.89
2019-04-06T07:47:07.045Z,97765.38
2019-04-06T07:49:38.488Z,97770.31
2019-04-06T07:52:08.382Z,97758.02
2019-04-06T07:54:37.184Z,97765.39
2019-04-06T07:57:04.113Z,97768.92
2019-04-06T07:59:30.971Z,97772.16
2019-04-06T08:02:00.724Z,97752.95
2019-04-06T08:04:31.251Z,97758.20
2019-04-06T08:06:59.300Z,97748.75
2019-04-06T08:09:26.445Z,97751.73
2019-04-06T08:12:00.229Z,97752.47
2019-04-06T08:14:30.418Z,97743.70
2019-04-06T08:17:00.162Z,97740.59
2019-04-06T08:19:29.142Z,97743.16
2019-04-06T08:21:59.050Z,97746.98
2019-04-06T08:24:27.162Z,97747.05
2019-04-06T08:26:56.709Z,97743.16
2019-04-06T08:29:23.708Z,97749.98
2019-04-06T08:31:54.853Z,97744.00
2019-04-06T08:34:22.180Z,97745.41
2019-04-06T08:36:52.438Z,97737.42
2019-04-06T08:39:19.194Z,97737.69
2019-04-06T08:41:46.563Z,97728.66
2019-04-06T08:44:13.574Z,97739.11
2019-04-06T08:46:40.572Z,97739.78
2019-04-06T08:49:07.476Z,97750.09
2019-04-06T08:51:34.348Z,97744.77
2019-04-06T08:54:07.112Z,97747.80
2019-04-06T08:56:37.118Z,97754.38
2019-04-06T08:59:11.574Z,97750.20
2019-04-06T09:01:37.118Z,97767.87
2019-04-06T09:04:05.440Z,97742.88
2019-04-06T09:06:34.376Z,97759.87
2019-04-06T09:09:05.030Z,97746.47
2019-04-06T09:11:33.616Z,97736.56
2019-04-06T09:14:01.598Z,97734.63
2019-04-06T09:16:28.353Z,97736.59
2019-04-06T09:18:55.234Z,97731.59
2019-04-06T09:21:22.893Z,97742.59
2019-04-06T09:23:53.356Z,97731.53
2019-04-06T09:26:20.290Z,97724.19
2019-04-06T09:28:47.163Z,97746.97
2019-04-06T09:31:14.374Z,97730.08
2019-04-06T09:33:41.370Z,97732.98
2019-04-06T09:36:08.413Z,97717.61
2019-04-06T09:38:35.564Z,97713.52
2019-04-06T09:41:04.595Z,97713.48
2019-04-06T09:43:31.384Z,97706.67
2019-04-06T09:46:17.108Z,97723.70
2019-04-06T09:49:03.828Z,97705.37
2019-04-06T09:51:56.192Z,97703.44
2019-04-06T09:54:31.856Z,97713.28
2019-04-06T09:57:36.378Z,97697.41
2019-04-06T10:00:28.164Z,97694.23
2019-04-06T10:03:17.648Z,97687.39
2019-04-06T10:06:16.242Z,97682.87
2019-04-06T10:09:05.668Z,97682.80
2019-04-06T10:11:52.258Z,97674.53
2019-04-06T10:14:52.005Z,97669.05
2019-04-06T10:17:43.062Z,97671.20
2019-04-06T10:20:31.643Z,97672.28
2019-04-06T10:23:24.772Z,97690.02
2019-04-06T10:26:13.613Z,97668.45
2019-04-06T10:29:09.727Z,97668.68
2019-04-06T10:32:16.004Z,97667.14
2019-04-06T10:34:56.346Z,97673.41
2019-04-06T10:37:36.526Z,97670.98
2019-04-06T10:40:16.054Z,97667.86
2019-04-06T10:43:02.793Z,97682.39
2019-04-06T10:45:54.922Z,97673.01
2019-04-06T10:48:34.317Z,97665.08
2019-04-06T10:51:27.216Z,97652.35
2019-04-06T10:54:18.731Z,97652.91
2019-04-06T10:57:05.326Z,97657.57
2019-04-06T10:59:59.221Z,97665.62
2019-04-06T11:02:34.239Z,97657.22
2019-04-06T11:05:19.451Z,97652.26
2019-04-06T11:08:07.655Z,97646.63
2019-04-06T11:10:45.427Z,97651.68
2019-04-06T11:13:40.653Z,97693.81
2019-04-06T11:16:42.508Z,97655.25
2019-04-06T11:19:31.022Z,97670.89
2019-04-06T11:22:20.188Z,97681.00
2019-04-06T11:25:07.358Z,97649.34
2019-04-06T11:27:54.720Z,97647.11
2019-04-06T11:30:41.190Z,97644.72
2019-04-06T11:33:26.756Z,97642.36
2019-04-06T11:36:09.149Z,97662.83
2019-04-06T11:39:05.169Z,97640.11
2019-04-06T11:42:07.224Z,97628.34
2019-04-06T11:44:56.154Z,97641.37
2019-04-06T11:47:42.955Z,97630.35
2019-04-06T11:50:29.635Z,97637.98
2019-04-06T11:53:11.998Z,97640.29
2019-04-06T11:55:48.265Z,97651.41
2019-04-06T11:58:37.910Z,97646.63
2019-04-06T12:01:33.664Z,97654.89
2019-04-06T12:04:29.282Z,97642.09
2019-04-06T12:07:18.903Z,97637.09
2019-04-06T12:10:12.298Z,97642.23
2019-04-06T12:12:46.402Z,97634.36
2019-04-06T12:15:30.251Z,97634.94
2019-04-06T12:18:31.898Z,97630.40
2019-04-06T12:21:07.591Z,97633.36
2019-04-06T12:23:56.343Z,97639.84
2019-04-06T12:26:42.815Z,97640.72
2019-04-06T12:29:35.139Z,97643.97
2019-04-06T12:32:15.470Z,97661.50
2019-04-06T12:34:50.408Z,97645.72
2019-04-06T12:37:26.267Z,97645.54
2019-04-06T12:40:00.176Z,97647.45
2019-04-06T12:43:04.999Z,97650.30
2019-04-06T12:45:52.140Z,97655.19
2019-04-06T12:48:56.852Z,97639.74
2019-04-06T12:51:50.988Z,97664.13
2019-04-06T12:54:38.072Z,97630.45
2019-04-06T12:57:24.800Z,97637.12
2019-04-06T12:59:58.322Z,97638.43
2019-04-06T13:02:44.991Z,97631.77
2019-04-06T13:05:34.484Z,97656.97
2019-04-06T13:08:19.501Z,97633.62
2019-04-06T13:11:05.544Z,97635.39
2019-04-06T13:14:10.936Z,97652.67
2019-04-06T13:17:01.040Z,97639.83
2019-04-06T13:19:46.177Z,97636.13
2019-04-06T13:22:24.119Z,97635.28
2019-04-06T13:24:59.753Z,97623.90
2019-04-06T13:27:34.637Z,97653.01
2019-04-06T13:30:24.109Z,97637.73
2019-04-06T13:33:13.401Z,97649.08
2019-04-06T13:35:58.687Z,97665.95
2019-04-06T13:38:41.662Z,97639.89
2019-04-06T13:41:16.622Z,97629.03
2019-04-06T13:43:49.102Z,97632.39
2019-04-06T13:46:29.620Z,97639.63
2019-04-06T13:49:23.529Z,97636.18
2019-04-06T13:52:07.682Z,97661.98
2019-04-06T13:54:40.302Z,97622.97
2019-04-06T13:57:29.963Z,97622.13
2019-04-06T14:00:14.783Z,97619.98
2019-04-06T14:02:54.747Z,97627.45
2019-04-06T14:05:44.180Z,97620.09
2019-04-06T14:08:43.324Z,97630.98
2019-04-06T14:11:33.086Z,97653.64
2019-04-06T14:14:18.263Z,97621.73
2019-04-06T14:16:59.087Z,97617.58
2019-04-06T14:19:44.185Z,97613.81
2019-04-06T14:22:36.310Z,97640.77
2019-04-06T14:25:15.080Z,97604.93
2019-04-06T14:28:04.314Z,97610.70
2019-04-06T14:30:56.628Z,97604.70
2019-04-06T14:33:46.520Z,97604.70
2019-04-06T14:36:35.661Z,97616.52
2019-04-06T14:39:28.052Z,97593.45
2019-04-06T14:42:14.920Z,97594.18
2019-04-06T14:44:53.274Z,97598.08
2019-04-06T14:47:35.171Z,97596.95
2019-04-06T14:50:24.995Z,97595.86
2019-04-06T14:53:05.591Z,97597.63
2019-04-06T14:55:40.267Z,97599.61
2019-04-06T14:58:25.957Z,97602.68
2019-04-06T15:01:40.307Z,97603.70
2019-04-06T15:04:14.836Z,97600.11
2019-04-06T15:07:09.457Z,97604.77
2019-04-06T15:09:51.829Z,97607.29
2019-04-06T15:12:46.524Z,97599.10
2019-04-06T15:15:23.425Z,97630.18
2019-04-06T15:18:12.884Z,97615.18
2019-04-06T15:20:59.664Z,97607.19
2019-04-06T15:23:36.324Z,97608.88
2019-04-06T15:26:12.751Z,97588.09
2019-04-06T15:29:02.632Z,97580.46
2019-04-06T15:31:51.791Z,97595.42
2019-04-06T15:34:25.407Z,97585.73
2019-04-06T15:37:12.016Z,97577.66
2019-04-06T15:39:59.835Z,97580.98
2019-04-06T15:42:44.062Z,97577.80
2019-04-06T15:45:29.703Z,97576.31
2019-04-06T15:48:35.825Z,97570.50
2019-04-06T15:50:57.399Z,97576.91
2019-04-06T15:53:36.997Z,97575.73
2019-04-06T15:56:39.563Z,97568.42
2019-04-06T15:59:26.279Z,97567.19
2019-04-06T16:02:12.986Z,97555.95
2019-04-06T16:04:49.580Z,97569.06
2019-04-06T16:07:34.240Z,97558.70
2019-04-06T16:10:20.725Z,97563.60
2019-04-06T16:13:19.097Z,97556.42
2019-04-06T16:15:59.899Z,97547.52
2019-04-06T16:18:37.478Z,97545.84
2019-04-06T16:21:26.862Z,97543.52
2019-04-06T16:24:16.033Z,97550.62
2019-04-06T16:26:52.400Z,97545.73
2019-04-06T16:29:42.583Z,97547.18
2019-04-06T16:32:34.317Z,97547.45
2019-04-06T16:35:24.689Z,97553.81
2019-04-06T16:38:22.097Z,97351.48
2019-04-06T16:41:07.573Z,97539.86
2019-04-06T16:43:56.024Z,97548.29
2019-04-06T16:46:43.640Z,97549.39
2019-04-06T16:49:31.454Z,97553.19
2019-04-06T16:52:27.694Z,97558.61
2019-04-06T16:55:12.996Z,97557.73
2019-04-06T16:58:17.591Z,97551.86
2019-04-06T17:01:10.043Z,97546.52
2019-04-06T17:03:46.525Z,97543.79
2019-04-06T17:06:32.993Z,97543.97
2019-04-06T17:09:10.637Z,97541.66
2019-04-06T17:12:00.462Z,97547.43
2019-04-06T17:14:37.487Z,97545.13
2019-04-06T17:17:35.824Z,97547.78
2019-04-06T17:20:29.571Z,97551.33
2019-04-06T17:23:19.884Z,97572.36
2019-04-06T17:26:09.336Z,97556.39
2019-04-06T17:28:59.260Z,97576.78
2019-04-06T17:31:50.670Z,97559.03
2019-04-06T17:34:53.453Z,97557.42
2019-04-06T17:37:30.008Z,97560.53
2019-04-06T17:40:19.165Z,97562.45
2019-04-06T17:42:52.717Z,97561.52
2019-04-06T17:45:39.711Z,97563.02
2019-04-06T17:48:19.635Z,97556.07
2019-04-06T17:51:11.374Z,97563.56
2019-04-06T17:54:04.042Z,97556.47
2019-04-06T17:57:08.996Z,97561.94
2019-04-06T17:59:54.159Z,97560.09
2019-04-06T18:02:49.207Z,97563.47
2019-04-06T18:05:24.906Z,97562.37
2019-04-06T18:08:00.247Z,97561.77
2019-04-06T18:10:35.872Z,97561.77
2019-04-06T18:13:20.898Z,97557.16
2019-04-06T18:15:47.766Z,97565.97
2019-04-06T18:18:15.553Z,97562.92
2019-04-06T18:20:42.771Z,97558.36
2019-04-06T18:23:09.905Z,97563.41
2019-04-06T18:25:38.341Z,97556.05
2019-04-06T18:28:05.416Z,97567.93
2019-04-06T18:30:32.780Z,97560.05
2019-04-06T18:33:06.269Z,97554.48
2019-04-06T18:35:36.112Z,97569.11
2019-04-06T18:38:37.626Z,97563.66
2019-04-06T18:41:04.790Z,97566.04
2019-04-06T18:43:31.675Z,97565.54
2019-04-06T18:45:58.817Z,97569.56
2019-04-06T18:48:26.369Z,97571.84
2019-04-06T18:50:53.131Z,97573.50
2019-04-06T18:53:19.873Z,97578.36
2019-04-06T18:55:50.059Z,97584.84
2019-04-06T18:58:18.741Z,97588.15
2019-04-06T19:00:45.837Z,97584.49
2019-04-06T19:03:16.683Z,97588.29
2019-04-06T19:05:43.848Z,97583.60
2019-04-06T19:08:12.044Z,97589.56
2019-04-06T19:10:39.381Z,97594.19
2019-04-06T19:13:07.429Z,97599.11
2019-04-06T19:15:36.914Z,97600.59
2019-04-06T19:18:04.246Z,97598.88
2019-04-06T19:20:31.651Z,97608.50
2019-04-06T19:22:58.996Z,97605.28
2019-04-06T19:25:26.327Z,97604.28
2019-04-06T19:27:53.590Z,97607.94
2019-04-06T19:30:20.442Z,97616.29
2019-04-06T19:32:47.354Z,97616.05
2019-04-06T19:35:14.415Z,97635.78
2019-04-06T19:37:41.373Z,97617.91
2019-04-06T19:40:08.323Z,97614.56
2019-04-06T19:42:35.360Z,97622.20
2019-04-06T19:45:02.987Z,97624.84
2019-04-06T19:47:30.136Z,97625.52
2019-04-06T19:49:56.971Z,97623.19
2019-04-06T19:52:24.478Z,97617.28
2019-04-06T19:54:52.209Z,97619.45
2019-04-06T19:57:19.451Z,97620.84
2019-04-06T19:59:47.435Z,97647.16
2019-04-06T20:02:14.515Z,97622.36
2019-04-06T20:04:41.320Z,97627.83
2019-04-06T20:07:10.749Z,97630.30
2019-04-06T20:09:36.757Z,97631.69
2019-04-06T20:12:07.232Z,97622.00
2019-04-06T20:14:32.718Z,97625.98
2019-04-06T20:16:59.731Z,97622.41
2019-04-06T20:19:26.473Z,97629.13
2019-04-06T20:21:53.217Z,97622.80
2019-04-06T20:24:20.752Z,97626.39
2019-04-06T20:26:47.936Z,97626.70
2019-04-06T20:29:18.202Z,97648.50
2019-04-06T20:31:44.919Z,97627.15
2019-04-06T20:34:11.882Z,97649.00
2019-04-06T20:36:39.668Z,97612.85
2019-04-06T20:39:07.674Z,97613.92
2019-04-06T20:41:34.610Z,97616.64
2019-04-06T20:44:01.353Z,97604.56
2019-04-06T20:46:28.609Z,97616.02
2019-04-06T20:48:55.574Z,97612.88
2019-04-06T20:51:22.586Z,97612.33
2019-04-06T20:53:49.784Z,97613.72
2019-04-06T20:56:16.496Z,97606.75
2019-04-06T20:58:43.518Z,97597.08
2019-04-06T21:01:11.170Z,97598.34
2019-04-06T21:03:38.574Z,97604.33
2019-04-06T21:06:05.317Z,97597.67
2019-04-06T21:08:32.224Z,97604.77
2019-04-06T21:10:59.370Z,97611.98
2019-04-06T21:13:26.740Z,97609.27
2019-04-06T21:15:53.585Z,97599.91
2019-04-06T21:18:22.263Z,97605.32
2019-04-06T21:20:49.520Z,97602.30
2019-04-06T21:23:17.190Z,97592.94
2019-04-06T21:25:44.437Z,97602.08
2019-04-06T21:28:11.157Z,97591.53
2019-04-06T21:30:37.945Z,97589.79
2019-04-06T21:33:04.693Z,97587.46
2019-04-06T21:35:31.754Z,97587.37
2019-04-06T21:37:58.560Z,97589.77
2019-04-06T21:40:25.368Z,97582.58
2019-04-06T21:42:52.351Z,97584.91
2019-04-06T21:45:19.674Z,97585.54
2019-04-06T21:47:46.627Z,97590.20
2019-04-06T21:50:13.685Z,97600.44
2019-04-06T21:52:40.560Z,97587.74
2019-04-06T21:55:07.758Z,97588.84
2019-04-06T21:57:34.649Z,97589.85
2019-04-06T22:00:02.180Z,97576.68
2019-04-06T22:02:29.635Z,97582.53
2019-04-06T22:04:56.375Z,97579.78
2019-04-06T22:07:23.331Z,97584.66
2019-04-06T22:09:50.464Z,97580.47
2019-04-06T22:12:20.723Z,97568.47
2019-04-06T22:14:47.691Z,97567.56
2019-04-06T22:17:14.512Z,97610.38
2019-04-06T22:19:41.255Z,97575.22
2019-04-06T22:22:08.005Z,97573.58
2019-04-06T22:24:35.079Z,97566.07
2019-04-06T22:27:02.087Z,97560.53
2019-04-06T22:29:28.940Z,97567.70
2019-04-06T22:31:55.685Z,97561.16
2019-04-06T22:34:34.019Z,97560.37
2019-04-06T22:36:53.452Z,97552.86
2019-04-06T22:39:20.372Z,97561.17
2019-04-06T22:41:47.856Z,97562.92
2019-04-06T22:44:17.126Z,97554.51
2019-04-06T22:46:43.848Z,97558.95
2019-04-06T22:49:11.185Z,97551.98
2019-04-06T22:51:38.026Z,97556.99
2019-04-06T22:54:05.308Z,97553.92
2019-04-06T22:56:32.635Z,97586.50
2019-04-06T22:58:59.558Z,97550.55
2019-04-06T23:01:31.163Z,97547.96
2019-04-06T23:04:32.315Z,97547.20
2019-04-06T23:07:18.942Z,97551.22
2019-04-06T23:09:46.561Z,97554.23
2019-04-06T23:12:13.533Z,97543.71
2019-04-06T23:14:40.253Z,97551.27
2019-04-06T23:17:07.065Z,97551.86
2019-04-06T23:19:37.598Z,97552.59
2019-04-06T23:22:04.611Z,97554.63
2019-04-06T23:24:31.742Z,97552.77
2019-04-06T23:26:59.055Z,97550.34
2019-04-06T23:29:25.866Z,97551.38
2019-04-06T23:31:53.165Z,97551.97
2019-04-06T23:34:20.316Z,97556.19
2019-04-06T23:36:47.394Z,97558.39
2019-04-06T23:39:14.312Z,97554.43
2019-04-06T23:41:41.015Z,97549.27
2019-04-06T23:44:08.071Z,97545.81
2019-04-06T23:46:35.037Z,97549.30
2019-04-06T23:49:02.705Z,97546.70
2019-04-06T23:51:30.407Z,97550.17
2019-04-06T23:53:57.428Z,97550.89
2019-04-06T23:56:24.244Z,97546.63
2019-04-06T23:58:50.993Z,97549.48
